THM YSCB-YMML

Flight info

Callsign THM
Flight time 1h 0m
Altitude 24000
Route CB Q215 TANTA Q29 ML
Aircraft C25C/M-SDE2E3FGHRWXY/LB1

Departure

Time 2026-05-04 09:07
Airport Canberra Airport (YSCB)

Arrival

Time 2026-05-04 10:08
Airport Melbourne Airport (YMML)
Time Latitude Longitude Altitude Speed Heading
2026-05-04 08:37 -35.30971 149.19101 1876 ft 0 kts 270°
2026-05-04 09:01 -35.30971 149.19105 1876 ft 2 kts 270°
2026-05-04 09:01 -35.30971 149.19124 1876 ft 2 kts 270°
2026-05-04 09:01 -35.30970 149.19140 1877 ft 0 kts 269°
2026-05-04 09:02 -35.30970 149.19157 1877 ft 2 kts 270°
2026-05-04 09:02 -35.30965 149.19175 1877 ft 2 kts 216°
2026-05-04 09:02 -35.30951 149.19181 1877 ft 0 kts 191°
2026-05-04 09:04 -35.30969 149.19207 1877 ft 6 kts 82°
2026-05-04 09:04 -35.31004 149.19239 1876 ft 14 kts 175°
2026-05-04 09:04 -35.31139 149.19240 1874 ft 22 kts 181°
2026-05-04 09:04 -35.31266 149.19238 1871 ft 17 kts 179°
2026-05-04 09:05 -35.31362 149.19239 1869 ft 12 kts 180°
2026-05-04 09:05 -35.31439 149.19274 1869 ft 12 kts 135°
2026-05-04 09:05 -35.31466 149.19329 1869 ft 0 kts 98°
2026-05-04 09:07 -35.26969 149.19695 3614 ft 223 kts
2026-05-04 09:08 -35.25405 149.19877 4235 ft 228 kts
2026-05-04 09:08 -35.23816 149.20079 4862 ft 231 kts
2026-05-04 09:08 -35.22211 149.20271 5469 ft 232 kts 360°
2026-05-04 09:08 -35.20610 149.20456 6086 ft 230 kts 359°
2026-05-04 09:09 -35.19032 149.20639 6683 ft 226 kts 359°
2026-05-04 09:09 -35.17491 149.20819 7263 ft 221 kts 359°
2026-05-04 09:09 -35.15971 149.20984 7854 ft 217 kts 357°
2026-05-04 09:09 -35.14495 149.20991 8441 ft 207 kts 343°
2026-05-04 09:10 -35.13178 149.20399 9045 ft 199 kts 329°
2026-05-04 09:10 -35.12115 149.19359 9659 ft 195 kts 315°
2026-05-04 09:10 -35.11377 149.17974 10240 ft 197 kts 300°
2026-05-04 09:10 -35.11027 149.16339 10804 ft 204 kts 284°
2026-05-04 09:11 -35.11140 149.14580 11374 ft 215 kts 266°
2026-05-04 09:11 -35.11804 149.12795 11934 ft 251 kts 248°
2026-05-04 09:11 -35.12450 149.11568 12330 ft 267 kts 247°
2026-05-04 09:11 -35.13504 149.09582 12948 ft 289 kts 245°
2026-05-04 09:12 -35.14636 149.07458 13585 ft 307 kts 245°
2026-05-04 09:12 -35.15823 149.05206 14194 ft 322 kts 245°
2026-05-04 09:14 -35.28685 148.92154 18428 ft 404 kts 193°
2026-05-04 09:14 -35.31474 148.91758 18992 ft 402 kts 192°
2026-05-04 09:14 -35.34236 148.91344 19559 ft 398 kts 194°
2026-05-04 09:14 -35.36971 148.90868 20136 ft 396 kts 195°
2026-05-04 09:15 -35.39697 148.90395 20723 ft 395 kts 194°
2026-05-04 09:15 -35.42415 148.89954 21321 ft 394 kts 194°
2026-05-04 09:15 -35.45130 148.89509 21935 ft 393 kts 195°
2026-05-04 09:15 -35.47834 148.89064 22558 ft 392 kts 195°
2026-05-04 09:17 -35.70392 148.83241 24009 ft 437 kts 227°
2026-05-04 09:18 -35.72476 148.80583 24010 ft 427 kts 242°
2026-05-04 09:18 -35.74189 148.77620 24018 ft 418 kts 243°
2026-05-04 09:18 -35.75844 148.74705 24055 ft 414 kts 244°
2026-05-04 09:18 -35.77479 148.71796 24068 ft 413 kts 244°
2026-05-04 09:19 -35.79124 148.68912 24082 ft 410 kts 244°
2026-05-04 09:19 -35.80761 148.66055 24084 ft 407 kts 244°
2026-05-04 09:19 -35.82382 148.63203 24080 ft 405 kts 244°
2026-05-04 09:19 -35.83992 148.60365 24083 ft 403 kts 244°
2026-05-04 09:20 -35.85576 148.57565 24080 ft 405 kts 244°
2026-05-04 09:20 -35.87215 148.54673 24079 ft 408 kts 244°
2026-05-04 09:20 -35.88848 148.51797 24080 ft 410 kts 244°
2026-05-04 09:20 -35.90478 148.48910 24077 ft 411 kts 244°
2026-05-04 09:21 -35.92110 148.46006 24082 ft 412 kts 244°
2026-05-04 09:21 -35.93725 148.43138 24078 ft 413 kts 244°
2026-05-04 09:21 -35.95364 148.40230 24082 ft 413 kts 244°
2026-05-04 09:21 -35.96997 148.37317 24071 ft 412 kts 244°
2026-05-04 09:22 -35.98636 148.34408 24079 ft 414 kts 244°
2026-05-04 09:22 -36.00296 148.31448 24080 ft 414 kts 244°
2026-05-04 09:22 -36.01913 148.28564 24076 ft 414 kts 244°
2026-05-04 09:22 -36.03550 148.25643 24080 ft 414 kts 244°
2026-05-04 09:23 -36.05188 148.22716 24085 ft 414 kts 244°
2026-05-04 09:23 -36.06829 148.19778 24086 ft 416 kts 244°
2026-05-04 09:23 -36.08474 148.16839 24083 ft 416 kts 244°
2026-05-04 09:23 -36.10120 148.13893 24083 ft 416 kts 244°
2026-05-04 09:25 -36.21647 147.93253 24079 ft 416 kts 244°
2026-05-04 09:25 -36.23293 147.90304 24078 ft 416 kts 244°
2026-05-04 09:26 -36.24930 147.87353 24076 ft 416 kts 244°
2026-05-04 09:26 -36.26575 147.84399 24069 ft 416 kts 244°
2026-05-04 09:26 -36.28217 147.81443 24069 ft 416 kts 244°
2026-05-04 09:26 -36.29857 147.78490 24071 ft 416 kts 244°
2026-05-04 09:27 -36.31493 147.75537 24075 ft 416 kts 244°
2026-05-04 09:27 -36.33131 147.72582 24069 ft 415 kts 244°
2026-05-04 09:27 -36.34762 147.69633 24069 ft 415 kts 244°
2026-05-04 09:27 -36.36393 147.66673 24062 ft 415 kts 244°
2026-05-04 09:28 -36.38022 147.63715 24058 ft 415 kts 244°
2026-05-04 09:28 -36.39652 147.60758 24060 ft 416 kts 244°
2026-05-04 09:28 -36.41285 147.57793 24055 ft 416 kts 244°
2026-05-04 09:28 -36.42916 147.54824 24053 ft 416 kts 245°
2026-05-04 09:29 -36.44547 147.51858 24059 ft 416 kts 244°
2026-05-04 09:29 -36.46177 147.48887 24053 ft 417 kts 244°
2026-05-04 09:29 -36.47812 147.45911 24053 ft 417 kts 244°
2026-05-04 09:29 -36.49421 147.42972 24058 ft 417 kts 244°
2026-05-04 09:30 -36.51051 147.39992 24059 ft 417 kts 244°
2026-05-04 09:30 -36.52683 147.37011 24056 ft 417 kts 244°
2026-05-04 09:30 -36.54314 147.34030 24050 ft 417 kts 245°
2026-05-04 09:30 -36.55941 147.31047 24047 ft 417 kts 244°
2026-05-04 09:31 -36.57564 147.28076 24052 ft 413 kts 245°
2026-05-04 09:31 -36.59173 147.25123 24048 ft 411 kts 245°
2026-05-04 09:31 -36.60774 147.22181 24041 ft 411 kts 244°
2026-05-04 09:31 -36.62374 147.19244 24037 ft 409 kts 244°
2026-05-04 09:32 -36.63966 147.16316 24052 ft 408 kts 245°
2026-05-04 09:32 -36.65553 147.13392 24046 ft 408 kts 245°
2026-05-04 09:34 -36.76649 146.92896 24036 ft 407 kts 245°
2026-05-04 09:34 -36.78227 146.89969 24038 ft 407 kts 245°
2026-05-04 09:34 -36.79810 146.87039 24034 ft 407 kts 246°
2026-05-04 09:34 -36.81385 146.84108 24035 ft 407 kts 245°
2026-05-04 09:35 -36.82961 146.81181 24042 ft 407 kts 245°
2026-05-04 09:35 -36.84539 146.78242 24038 ft 407 kts 245°
2026-05-04 09:35 -36.86119 146.75305 24041 ft 408 kts 244°
2026-05-04 09:35 -36.87699 146.72364 24029 ft 408 kts 244°
2026-05-04 09:37 -36.98714 146.51762 24027 ft 406 kts 244°
2026-05-04 09:37 -37.00282 146.48823 24025 ft 406 kts 244°
2026-05-04 09:38 -37.01846 146.45884 24023 ft 406 kts 244°
2026-05-04 09:38 -37.03411 146.42942 24023 ft 406 kts 244°
2026-05-04 09:38 -37.04974 146.39999 24020 ft 406 kts 243°
2026-05-04 09:38 -37.06540 146.37053 24020 ft 406 kts 243°
2026-05-04 09:39 -37.08103 146.34110 24020 ft 406 kts 243°
2026-05-04 09:39 -37.09662 146.31168 24019 ft 406 kts 243°
2026-05-04 09:39 -37.11220 146.28223 24012 ft 405 kts 243°
2026-05-04 09:39 -37.12777 146.25283 24015 ft 405 kts 243°
2026-05-04 09:40 -37.14328 146.22346 24010 ft 404 kts 243°
2026-05-04 09:40 -37.15937 146.19446 24009 ft 409 kts 236°
2026-05-04 09:40 -37.18213 146.17198 23745 ft 424 kts 214°
2026-05-04 09:40 -37.20907 146.16007 23183 ft 403 kts 199°
2026-05-04 09:41 -37.23615 146.15329 22607 ft 392 kts 194°
2026-05-04 09:42 -37.40891 146.12503 19661 ft 335 kts 192°
2026-05-04 09:43 -37.43184 146.12141 19265 ft 330 kts 192°
2026-05-04 09:43 -37.45455 146.11786 18870 ft 328 kts 192°
2026-05-04 09:43 -37.47707 146.11435 18491 ft 325 kts 192°
2026-05-04 09:43 -37.49943 146.11087 18089 ft 323 kts 192°
2026-05-04 09:44 -37.52170 146.10751 17654 ft 321 kts 192°
2026-05-04 09:44 -37.54385 146.10418 17217 ft 320 kts 193°
2026-05-04 09:44 -37.56585 146.10098 16800 ft 318 kts 192°
2026-05-04 09:46 -37.71763 146.07821 14001 ft 311 kts 192°
2026-05-04 09:46 -37.73909 146.07486 13614 ft 310 kts 192°
2026-05-04 09:46 -37.76099 146.07137 13185 ft 328 kts 192°
2026-05-04 09:47 -37.78412 146.06766 13036 ft 340 kts 192°
2026-05-04 09:47 -37.80742 146.06381 13005 ft 344 kts 192°
2026-05-04 09:49 -37.87870 145.93480 12983 ft 316 kts 319°
2026-05-04 09:49 -37.86008 145.91984 12988 ft 318 kts 328°
2026-05-04 09:49 -37.84041 145.90703 12873 ft 320 kts 331°
2026-05-04 09:51 -37.73040 145.82471 11043 ft 294 kts 296°
2026-05-04 09:51 -37.72393 145.80043 10738 ft 293 kts 282°
2026-05-04 09:51 -37.72244 145.77483 10445 ft 293 kts 274°
2026-05-04 09:51 -37.72233 145.74922 10157 ft 290 kts 274°
2026-05-04 09:52 -37.72144 145.72395 9859 ft 286 kts 277°
2026-05-04 09:52 -37.72006 145.69906 9544 ft 283 kts 277°
2026-05-04 09:52 -37.71883 145.67441 9219 ft 282 kts 276°
2026-05-04 09:52 -37.71780 145.64979 9061 ft 278 kts 276°
2026-05-04 09:53 -37.71673 145.62573 9041 ft 271 kts 276°
2026-05-04 09:53 -37.71570 145.60250 9014 ft 260 kts 276°
2026-05-04 09:53 -37.71466 145.58023 9002 ft 249 kts 276°
2026-05-04 09:53 -37.71367 145.55880 9008 ft 241 kts 276°
2026-05-04 09:54 -37.71272 145.53789 9004 ft 237 kts 276°
2026-05-04 09:54 -37.71173 145.51736 9006 ft 232 kts 276°
2026-05-04 09:54 -37.71082 145.49720 9006 ft 228 kts 277°
2026-05-04 09:54 -37.70988 145.47721 8870 ft 230 kts 276°
2026-05-04 09:55 -37.70891 145.45684 8658 ft 235 kts 276°
2026-05-04 09:55 -37.70796 145.43639 8450 ft 238 kts 276°
2026-05-04 09:55 -37.70695 145.41542 8242 ft 240 kts 276°
2026-05-04 09:55 -37.70597 145.39438 8041 ft 241 kts 276°
2026-05-04 09:56 -37.70497 145.37300 7664 ft 244 kts 276°
2026-05-04 09:56 -37.70395 145.35190 7289 ft 238 kts 276°
2026-05-04 09:56 -37.70299 145.33115 6919 ft 235 kts 276°
2026-05-04 09:56 -37.70198 145.31072 6549 ft 232 kts 277°
2026-05-04 09:57 -37.70103 145.29049 6180 ft 230 kts 276°
2026-05-04 09:57 -37.70006 145.27077 6049 ft 219 kts 276°
2026-05-04 09:57 -37.69919 145.25218 6017 ft 205 kts 276°
2026-05-04 09:57 -37.69832 145.23466 6012 ft 194 kts 276°
2026-05-04 09:58 -37.69818 145.21795 6001 ft 189 kts 264°
2026-05-04 09:58 -37.70085 145.20730 6006 ft 190 kts 252°
2026-05-04 09:58 -37.70811 145.19324 5943 ft 194 kts 240°
2026-05-04 10:00 -37.77161 145.08276 4017 ft 224 kts 240°
2026-05-04 10:00 -37.78065 145.06689 3880 ft 224 kts 240°
2026-05-04 10:02 -37.82523 144.94280 2536 ft 215 kts 262°
2026-05-04 10:04 -37.79638 144.86188 2489 ft 100 kts 337°
2026-05-04 10:04 -37.78960 144.86047 2504 ft 112 kts 335°
2026-05-04 10:04 -37.77992 144.85833 2530 ft 164 kts 343°
2026-05-04 10:04 -37.76993 144.85679 2524 ft 115 kts 342°
2026-05-04 10:05 -37.76331 144.85582 2444 ft 84 kts 339°
2026-05-04 10:05 -37.75718 144.85456 1943 ft 93 kts 336°
2026-05-04 10:05 -37.75092 144.85308 1642 ft 91 kts 340°
2026-05-04 10:05 -37.74439 144.85188 1513 ft 97 kts 343°
2026-05-04 10:06 -37.73752 144.85057 1389 ft 103 kts 343°
2026-05-04 10:06 -37.73032 144.84926 1249 ft 107 kts 347°
2026-05-04 10:06 -37.72287 144.84789 1094 ft 108 kts 348°
2026-05-04 10:08 -37.68134 144.84022 363 ft 84 kts 345°
2026-05-04 10:08 -37.67676 144.83932 363 ft 53 kts 353°
2026-05-04 10:08 -37.67373 144.83875 375 ft 37 kts 349°
2026-05-04 10:08 -37.67161 144.83837 385 ft 26 kts 355°
2026-05-04 10:09 -37.66988 144.83848 389 ft 22 kts 13°
2026-05-04 10:09 -37.66854 144.83907 391 ft 19 kts 21°
2026-05-04 10:09 -37.66827 144.83920 391 ft 0 kts 20°
2026-05-04 10:10 -37.66804 144.83931 392 ft 15 kts 19°
2026-05-04 10:10 -37.66757 144.83969 393 ft 6 kts 50°
2026-05-04 10:11 -37.66728 144.84015 392 ft 7 kts 60°
2026-05-04 10:11 -37.66718 144.84066 393 ft 6 kts 90°
2026-05-04 10:11 -37.66731 144.84128 395 ft 9 kts 119°
2026-05-04 10:11 -37.66764 144.84203 395 ft 10 kts 125°
2026-05-04 10:12 -37.66764 144.84271 397 ft 7 kts 80°
2026-05-04 10:12 -37.66756 144.84324 398 ft 5 kts 81°
2026-05-04 10:12 -37.66756 144.84327 398 ft 0 kts 81°